Airfield :
LOGIN :

Register | Disclaimer

   EN    FR    IT 

 










Legend :    VFR   Marginal VFR   IFR   Intensive IFR   Very Intensive IFR
Visi :
Ceiling :
>= 8 km
>= 3000ft
5 to 8 km
1000 to 3000 ft
1500m to 5 km
500 to 1000 ft
800 to 1500m
200 to 500 ft
< 800m
< 200 ft
Symbols :   Thunderstorms  Fog  Heavy snow  Heavy precipitations  Wind > 20 kt
SIGMETs :     Misc.  Thunderstorms  Icing  Turbulence  Mountain Waves  Volcanic Ashes






- Airport Elevation : 32 ft
- IATA code : LKZ


EGUL - RAF Lakenheath

CURRENT METAR :
  • 131356Z AUTO 35014G18KT 9999 BKN012 21/15 A2991 RMK AO2 RAE1256DZB1256E06 SLP132 P0000 T02080153 $

EXPIRED METARs :
  • 131321Z AUTO 36013KT 9999 BKN011 BKN200 21/16 A2991 RMK AO2 RAE1256DZB1256E06 CIG 011V200 BKN011 V SCT SLP132 $
  • 131256Z AUTO 35015KT 9999 -RA SCT011 20/15 A2992 RMK AO2 LTG DSNT NW RAB50 SLP135 P0000 T02020154 $
  • 131236Z AUTO 35014KT 9999 SCT011 21/16 A2992 RMK AO2 SLP135 $
  • 131221Z 34016KT 9999 BKN011 20/15 A2992 RMK AO2A SLP135 $
  • 131201Z AUTO 32013KT 9999 SCT011 20/15 A2992 RMK AO2 SLP135 $
  • 131156Z 31013KT 9999 BKN012 21/15 A2992 RMK AO2A SLP135 T02060154 10227 20178 51010 $

TAF AMD TAF EGUL
Valid from the 13 at 14:00 until the 14 at 20:00 UTC


131410Z 1314/1420 35012G18KT 9999 BKN012 BKN070 QNH2986INS
BECMG 1321/1322 01009KT 9999 SCT010 BKN060 QNH2980INS
BECMG 1402/1403 03009KT 1600 BR OVC003 QNH2983INS
TEMPO 1403/1405 3200 BR
BECMG 1405/1406 35009KT 9999 NSW OVC010 QNH2985INS
BECMG 1407/1408 01009KT 9999 BKN010 BKN035 QNH2986INS
BECMG 1415/1416 03012KT 9000 -SHRA VCTS OVC015CB QNH2984INS TX27/1414Z TN18/1405Z LAST NO AMDS AFT 1314 NEXT 1406



MET'MAP, your aeronautical weather chart ! - Copyright ORBIFLY December 2007 - Disclaimer

ORBIFLY MET'MAP TEAM :

Programming & Development : Alexandra Zaïnal
Concept & original design : Baudouin d'Aumeries
Assistance for programming : Marc-Olivier Méhu
Technical & hardware support : Manuel Goepfert

Contact : metmap@orbifly.com




SOURCES & CREDITS :

   NOAA